createdAt,value
2018-07-22T00:02:11.704Z,10.20
2018-07-22T00:04:39.455Z,9.60
2018-07-22T00:07:07.246Z,10.70
2018-07-22T00:09:34.916Z,10.43
2018-07-22T00:12:02.561Z,9.33
2018-07-22T00:14:30.216Z,10.80
2018-07-22T00:16:57.986Z,10.27
2018-07-22T00:19:25.743Z,10.23
2018-07-22T00:21:53.673Z,10.00
2018-07-22T00:24:21.397Z,9.77
2018-07-22T00:26:49.167Z,10.90
2018-07-22T00:29:16.952Z,9.87
2018-07-22T00:31:44.733Z,10.60
2018-07-22T00:34:12.467Z,10.40
2018-07-22T00:36:40.143Z,9.37
2018-07-22T00:39:09.495Z,10.30
2018-07-22T00:41:37.207Z,10.40
2018-07-22T00:44:04.901Z,10.30
2018-07-22T00:46:32.598Z,10.60
2018-07-22T00:49:00.338Z,10.03
2018-07-22T00:51:28.069Z,11.17
2018-07-22T00:53:55.930Z,10.50
2018-07-22T00:56:23.730Z,10.00
2018-07-22T00:58:51.534Z,10.30
2018-07-22T01:01:19.557Z,11.50
2018-07-22T01:03:47.737Z,10.97
2018-07-22T01:06:15.567Z,9.83
2018-07-22T01:08:43.284Z,10.57
2018-07-22T01:11:11.068Z,10.40
2018-07-22T01:13:38.904Z,9.67
2018-07-22T01:16:06.690Z,10.57
2018-07-22T01:18:34.400Z,10.67
2018-07-22T01:21:02.984Z,9.80
2018-07-22T01:23:30.791Z,9.87
2018-07-22T01:25:58.510Z,10.13
2018-07-22T01:28:26.343Z,10.40
2018-07-22T01:30:54.114Z,10.07
2018-07-22T01:33:21.923Z,10.53
2018-07-22T01:35:49.668Z,10.13
2018-07-22T01:38:17.466Z,11.20
2018-07-22T01:40:45.182Z,10.77
2018-07-22T01:43:12.923Z,9.90
2018-07-22T01:45:40.622Z,10.67
2018-07-22T01:48:08.365Z,10.53
2018-07-22T01:50:36.081Z,10.37
2018-07-22T01:53:03.781Z,10.00
2018-07-22T01:55:31.496Z,10.97
2018-07-22T01:57:59.165Z,10.90
2018-07-22T02:00:26.962Z,10.10
2018-07-22T02:02:58.157Z,9.70
2018-07-22T02:05:26.197Z,10.90
2018-07-22T02:07:53.905Z,10.43
2018-07-22T02:10:21.660Z,10.37
2018-07-22T02:12:49.400Z,10.93
2018-07-22T02:15:17.179Z,11.00
2018-07-22T02:17:44.890Z,10.00
2018-07-22T02:20:12.594Z,9.83
2018-07-22T02:22:40.315Z,10.40
2018-07-22T02:25:08.043Z,10.00
2018-07-22T02:27:35.781Z,11.30
2018-07-22T02:30:04.072Z,11.03
2018-07-22T02:32:31.880Z,10.23
2018-07-22T02:34:59.652Z,11.27
2018-07-22T02:37:27.668Z,10.57
2018-07-22T02:39:55.428Z,9.87
2018-07-22T02:42:23.176Z,10.53
2018-07-22T02:44:50.988Z,10.40
2018-07-22T02:47:18.708Z,9.97
2018-07-22T02:49:46.381Z,9.80
2018-07-22T02:52:14.058Z,10.77
2018-07-22T02:54:41.710Z,10.57
2018-07-22T02:57:09.743Z,10.70
2018-07-22T02:59:37.459Z,10.80
2018-07-22T03:02:05.236Z,10.10
2018-07-22T03:04:33.068Z,9.93
2018-07-22T03:07:00.816Z,11.47
2018-07-22T03:09:28.505Z,11.33
2018-07-22T03:11:56.254Z,10.80
2018-07-22T03:14:23.980Z,9.60
2018-07-22T03:16:51.889Z,9.97
2018-07-22T03:19:19.606Z,9.93
2018-07-22T03:21:47.348Z,10.00
2018-07-22T03:24:15.051Z,11.47
2018-07-22T03:26:42.772Z,9.17
2018-07-22T03:29:10.458Z,10.20
2018-07-22T03:31:38.419Z,9.70
2018-07-22T03:34:06.363Z,9.43
2018-07-22T03:36:34.093Z,11.47
2018-07-22T03:39:01.844Z,10.00
2018-07-22T03:41:29.491Z,9.53
2018-07-22T03:43:57.289Z,11.30
2018-07-22T03:46:25.047Z,10.47
2018-07-22T03:48:52.809Z,10.93
2018-07-22T03:51:20.494Z,9.53
2018-07-22T03:53:48.232Z,10.43
2018-07-22T03:56:15.893Z,11.67
2018-07-22T03:58:43.612Z,9.90
2018-07-22T04:01:11.274Z,11.17
2018-07-22T04:03:38.987Z,10.97
2018-07-22T04:06:06.742Z,10.27
2018-07-22T04:08:34.507Z,9.87
2018-07-22T04:11:02.184Z,9.93
2018-07-22T04:13:29.919Z,9.70
2018-07-22T04:15:57.705Z,9.53
2018-07-22T04:18:25.446Z,11.57
2018-07-22T04:20:53.325Z,10.17
2018-07-22T04:23:21.138Z,10.40
2018-07-22T04:25:48.751Z,10.73
2018-07-22T04:28:16.485Z,10.03
2018-07-22T04:30:44.189Z,10.57
2018-07-22T04:33:11.965Z,10.77
2018-07-22T04:35:47.865Z,9.73
2018-07-22T04:38:15.595Z,10.00
2018-07-22T04:40:43.379Z,11.27
2018-07-22T04:43:11.069Z,10.83
2018-07-22T04:45:38.799Z,10.93
2018-07-22T04:48:06.514Z,10.13
2018-07-22T04:50:34.269Z,10.73
2018-07-22T04:53:02.021Z,10.27
2018-07-22T04:55:29.704Z,10.80
2018-07-22T04:57:57.476Z,10.20
2018-07-22T05:00:25.191Z,11.67
2018-07-22T05:02:52.889Z,11.13
2018-07-22T05:05:20.626Z,9.97
2018-07-22T05:07:48.305Z,11.03
2018-07-22T05:10:16.018Z,10.80
2018-07-22T05:12:43.811Z,10.43
2018-07-22T05:15:11.528Z,10.80
2018-07-22T05:17:39.222Z,11.07
2018-07-22T05:20:07.113Z,10.00
2018-07-22T05:22:34.785Z,11.00
2018-07-22T05:25:02.603Z,9.90
2018-07-22T05:27:30.216Z,10.13
2018-07-22T05:29:57.936Z,11.30
2018-07-22T05:32:25.610Z,11.10
2018-07-22T05:34:53.380Z,11.30
2018-07-22T05:37:24.467Z,10.67
2018-07-22T05:39:52.184Z,10.50
2018-07-22T05:42:19.863Z,10.80
2018-07-22T05:44:47.557Z,11.43
2018-07-22T05:47:15.211Z,10.93
2018-07-22T05:49:42.931Z,10.70
2018-07-22T05:52:10.633Z,13.20
2018-07-22T05:54:38.359Z,11.57
2018-07-22T05:57:06.043Z,10.90
2018-07-22T05:59:33.799Z,12.03
2018-07-22T06:02:01.552Z,11.20
2018-07-22T06:04:29.325Z,11.70
2018-07-22T06:06:57.051Z,12.07
2018-07-22T06:09:24.782Z,11.40
2018-07-22T06:11:52.569Z,11.90
2018-07-22T06:14:20.255Z,12.00
2018-07-22T06:16:47.988Z,12.40
2018-07-22T06:19:15.718Z,12.60
2018-07-22T06:21:43.576Z,12.10
2018-07-22T06:24:11.331Z,12.57
2018-07-22T06:26:39.168Z,11.33
2018-07-22T06:29:07.105Z,12.60
2018-07-22T06:31:34.906Z,12.67
2018-07-22T06:34:02.661Z,12.37
2018-07-22T06:36:30.436Z,12.07
2018-07-22T06:38:58.123Z,12.03
2018-07-22T06:41:25.849Z,13.10
2018-07-22T06:43:53.510Z,11.87
2018-07-22T06:46:21.294Z,13.13
2018-07-22T06:48:48.959Z,11.93
2018-07-22T06:51:16.698Z,12.00
2018-07-22T06:53:44.510Z,13.10
2018-07-22T06:56:12.174Z,11.93
2018-07-22T06:58:39.814Z,12.93
2018-07-22T07:01:07.542Z,11.70
2018-07-22T07:03:35.248Z,12.60
2018-07-22T07:06:03.010Z,13.30
2018-07-22T07:08:30.828Z,12.10
2018-07-22T07:10:58.534Z,12.70
2018-07-22T07:13:26.225Z,13.10
2018-07-22T07:15:53.936Z,14.33
2018-07-22T07:18:21.878Z,14.30
2018-07-22T07:20:49.699Z,12.50
2018-07-22T07:23:17.449Z,13.20
2018-07-22T07:25:45.317Z,13.03
2018-07-22T07:28:13.017Z,13.93
2018-07-22T07:30:40.757Z,15.10
2018-07-22T07:33:08.477Z,14.83
2018-07-22T07:35:36.377Z,14.73
2018-07-22T07:38:04.132Z,14.67
2018-07-22T07:40:31.849Z,14.00
2018-07-22T07:42:59.528Z,14.70
2018-07-22T07:45:27.395Z,15.23
2018-07-22T07:47:55.093Z,15.27
2018-07-22T07:50:22.921Z,15.63
2018-07-22T07:52:50.696Z,15.33
2018-07-22T07:55:18.427Z,15.20
2018-07-22T07:57:46.154Z,16.60
2018-07-22T08:00:14.107Z,16.10
2018-07-22T08:02:41.833Z,16.30
2018-07-22T08:05:09.633Z,15.33
2018-07-22T08:07:37.368Z,15.47
2018-07-22T08:10:05.828Z,16.03
2018-07-22T08:12:33.620Z,15.23
2018-07-22T08:15:01.610Z,15.90
2018-07-22T08:17:29.348Z,15.73
2018-07-22T08:19:57.058Z,14.70
2018-07-22T08:22:24.874Z,14.37
2018-07-22T08:24:52.664Z,14.97
2018-07-22T08:27:20.479Z,15.27
2018-07-22T08:29:48.197Z,14.87
2018-07-22T08:32:16.097Z,16.03
2018-07-22T08:34:43.783Z,15.37
2018-07-22T08:37:11.685Z,14.53
2018-07-22T08:39:39.361Z,14.63
2018-07-22T08:42:07.109Z,15.60
2018-07-22T08:44:34.781Z,13.83
2018-07-22T08:47:02.609Z,15.80
2018-07-22T08:49:30.416Z,14.40
2018-07-22T08:51:58.206Z,15.80
2018-07-22T08:54:25.939Z,15.80
2018-07-22T08:56:53.630Z,14.90
2018-07-22T08:59:21.322Z,14.93
2018-07-22T09:01:49.182Z,15.30
2018-07-22T09:04:16.981Z,15.37
2018-07-22T09:06:44.768Z,16.10
2018-07-22T09:09:12.706Z,15.37
2018-07-22T09:11:40.726Z,15.60
2018-07-22T09:14:09.139Z,15.80
2018-07-22T09:16:36.928Z,16.33
2018-07-22T09:19:04.714Z,16.43
2018-07-22T09:21:32.484Z,17.57
2018-07-22T09:24:00.120Z,17.13
2018-07-22T09:26:27.807Z,19.07
2018-07-22T09:28:55.575Z,17.07
2018-07-22T09:31:23.308Z,18.30
2018-07-22T09:33:51.036Z,17.57
2018-07-22T09:36:18.774Z,17.77
2018-07-22T09:38:46.488Z,16.83
2018-07-22T09:41:14.271Z,16.63
2018-07-22T09:43:41.920Z,18.17
2018-07-22T09:46:09.640Z,16.57
2018-07-22T09:48:37.473Z,17.57
2018-07-22T09:51:05.269Z,17.97
2018-07-22T09:53:33.058Z,18.43
2018-07-22T09:56:00.764Z,18.10
2018-07-22T09:58:28.555Z,18.27
2018-07-22T10:00:57.896Z,17.63
2018-07-22T10:03:26.604Z,18.70
2018-07-22T10:05:54.319Z,19.17
2018-07-22T10:08:22.115Z,19.20
2018-07-22T10:10:50.613Z,18.43
2018-07-22T10:13:18.340Z,18.10
2018-07-22T10:15:46.070Z,18.63
2018-07-22T10:18:13.981Z,19.00
2018-07-22T10:20:41.743Z,19.57
2018-07-22T10:23:09.490Z,17.90
2018-07-22T10:25:37.225Z,18.73
2018-07-22T10:28:05.058Z,19.67
2018-07-22T10:30:32.899Z,19.53
2018-07-22T10:33:00.663Z,18.60
2018-07-22T10:35:28.332Z,18.90
2018-07-22T10:37:56.198Z,19.60
2018-07-22T10:40:23.953Z,18.73
2018-07-22T10:42:52.287Z,19.53
2018-07-22T10:45:21.702Z,18.50
2018-07-22T10:47:49.459Z,18.67
2018-07-22T10:50:17.063Z,18.80
2018-07-22T10:52:44.679Z,19.27
2018-07-22T10:55:12.348Z,19.23
2018-07-22T10:57:40.102Z,18.23
2018-07-22T11:00:08.519Z,18.00
2018-07-22T11:02:36.223Z,18.67
2018-07-22T11:05:05.071Z,17.87
2018-07-22T11:07:32.850Z,18.00
2018-07-22T11:10:00.594Z,17.40
2018-07-22T11:12:28.323Z,17.73
2018-07-22T11:14:56.098Z,16.83
2018-07-22T11:17:23.680Z,17.40
2018-07-22T11:19:51.436Z,16.07
2018-07-22T11:22:19.280Z,18.37
2018-07-22T11:24:47.131Z,16.90
2018-07-22T11:27:14.846Z,17.10
2018-07-22T11:29:42.676Z,15.60
2018-07-22T11:32:10.449Z,15.07
2018-07-22T11:34:38.220Z,14.00
2018-07-22T11:37:05.957Z,14.37
2018-07-22T11:39:33.678Z,15.27
2018-07-22T11:42:01.373Z,14.87
2018-07-22T11:44:29.657Z,15.17
2018-07-22T11:46:57.457Z,16.70
2018-07-22T11:49:25.186Z,15.60
2018-07-22T11:51:52.897Z,15.07
2018-07-22T11:54:20.617Z,15.07
2018-07-22T11:56:48.514Z,16.87
2018-07-22T11:59:16.589Z,16.60
2018-07-22T12:01:44.343Z,17.17
2018-07-22T12:04:12.281Z,18.23
2018-07-22T12:06:40.091Z,17.70
2018-07-22T12:09:09.666Z,18.87
2018-07-22T12:11:37.335Z,17.90
2018-07-22T12:14:05.403Z,14.43
2018-07-22T12:16:33.119Z,12.20
2018-07-22T12:19:00.816Z,11.83
2018-07-22T12:21:28.532Z,12.20
2018-07-22T12:23:56.369Z,13.10
2018-07-22T12:26:24.453Z,13.50
2018-07-22T12:28:52.280Z,13.73
2018-07-22T12:31:20.414Z,13.17
2018-07-22T12:33:48.340Z,12.67
2018-07-22T12:36:16.147Z,14.13
2018-07-22T12:38:44.679Z,13.33
2018-07-22T12:41:12.921Z,12.90
2018-07-22T12:43:41.247Z,12.83
2018-07-22T12:46:09.062Z,13.40
2018-07-22T12:48:37.045Z,13.80
2018-07-22T12:51:05.030Z,13.30
2018-07-22T12:53:32.965Z,13.97
2018-07-22T12:56:00.845Z,14.03
2018-07-22T12:58:28.722Z,11.97
2018-07-22T13:00:56.878Z,12.73
2018-07-22T13:03:24.672Z,12.73
2018-07-22T13:05:52.663Z,11.60
2018-07-22T13:08:20.660Z,12.50
2018-07-22T13:10:48.798Z,12.33
2018-07-22T13:13:16.540Z,12.43
2018-07-22T13:15:44.413Z,13.33
2018-07-22T13:18:12.237Z,11.93
2018-07-22T13:20:40.087Z,13.07
2018-07-22T13:23:08.830Z,12.27
2018-07-22T13:25:36.681Z,12.07
2018-07-22T13:28:08.789Z,12.73
2018-07-22T13:30:36.663Z,11.50
2018-07-22T13:33:04.704Z,11.73
2018-07-22T13:35:32.459Z,11.70
2018-07-22T13:38:00.373Z,13.00
2018-07-22T13:40:28.216Z,12.87
2018-07-22T13:42:56.270Z,12.93
2018-07-22T13:45:24.111Z,13.20
2018-07-22T13:47:51.849Z,12.73
2018-07-22T13:50:19.666Z,12.50
2018-07-22T13:52:47.506Z,12.00
2018-07-22T13:55:15.477Z,11.57
2018-07-22T13:57:43.552Z,11.70
2018-07-22T14:00:11.849Z,9.73
2018-07-22T14:02:39.768Z,11.23
2018-07-22T14:05:07.625Z,10.70
2018-07-22T14:07:35.541Z,11.00
2018-07-22T14:10:03.325Z,10.93
2018-07-22T14:12:31.096Z,11.37
2018-07-22T14:15:06.009Z,12.27
2018-07-22T14:17:33.843Z,10.90
2018-07-22T14:20:01.728Z,12.13
2018-07-22T14:22:29.596Z,11.80
2018-07-22T14:24:57.356Z,11.37
2018-07-22T14:27:25.097Z,11.83
2018-07-22T14:29:53.049Z,11.40
2018-07-22T14:32:20.848Z,12.97
2018-07-22T14:34:48.680Z,11.70
2018-07-22T14:37:16.538Z,11.33
2018-07-22T14:39:44.507Z,11.93
2018-07-22T14:42:12.346Z,12.20
2018-07-22T14:44:40.142Z,12.40
2018-07-22T14:47:08.209Z,13.60
2018-07-22T14:49:35.778Z,13.33
2018-07-22T14:52:03.630Z,14.63
2018-07-22T14:54:31.596Z,14.20
2018-07-22T14:56:59.605Z,15.90
2018-07-22T14:59:27.698Z,16.63
2018-07-22T15:01:55.631Z,15.40
2018-07-22T15:04:23.480Z,16.33
2018-07-22T15:06:51.437Z,17.47
2018-07-22T15:09:19.217Z,16.43
2018-07-22T15:11:47.077Z,16.13
2018-07-22T15:14:14.849Z,17.40
2018-07-22T15:16:43.026Z,15.33
2018-07-22T15:19:10.843Z,18.07
2018-07-22T15:21:38.686Z,17.27
2018-07-22T15:24:06.592Z,16.27
2018-07-22T15:26:34.495Z,16.97
2018-07-22T15:29:02.334Z,16.70
2018-07-22T15:31:30.165Z,17.30
2018-07-22T15:33:57.961Z,16.30
2018-07-22T15:36:25.916Z,17.77
2018-07-22T15:38:53.795Z,16.93
2018-07-22T15:41:21.624Z,16.87
2018-07-22T15:43:49.450Z,16.37
2018-07-22T15:46:17.457Z,17.00
2018-07-22T15:48:45.267Z,16.60
2018-07-22T15:51:13.072Z,16.87
2018-07-22T15:53:40.818Z,18.10
2018-07-22T15:56:08.682Z,17.70
2018-07-22T15:58:36.556Z,18.80
2018-07-22T16:01:04.353Z,18.30
2018-07-22T16:03:32.077Z,17.90
2018-07-22T16:05:59.878Z,17.30
2018-07-22T16:08:27.640Z,18.20
2018-07-22T16:10:55.463Z,18.50
2018-07-22T16:13:23.252Z,16.47
2018-07-22T16:15:51.060Z,18.03
2018-07-22T16:18:19.176Z,18.07
2018-07-22T16:20:46.974Z,17.23
2018-07-22T16:23:14.854Z,16.40
2018-07-22T16:25:42.770Z,16.97
2018-07-22T16:28:10.472Z,16.30
2018-07-22T16:30:38.343Z,16.37
2018-07-22T16:33:06.176Z,16.40
2018-07-22T16:35:33.867Z,16.03
2018-07-22T16:38:01.690Z,16.97
2018-07-22T16:40:29.384Z,16.17
2018-07-22T16:42:57.155Z,16.03
2018-07-22T16:45:24.923Z,15.43
2018-07-22T16:47:52.802Z,14.93
2018-07-22T16:50:20.645Z,15.00
2018-07-22T16:52:48.437Z,13.90
2018-07-22T16:55:16.181Z,14.10
2018-07-22T16:57:44.030Z,14.77
2018-07-22T17:00:12.073Z,14.03
2018-07-22T17:02:39.866Z,14.63
2018-07-22T17:05:07.720Z,14.63
2018-07-22T17:07:35.494Z,15.08
2018-07-22T17:10:03.203Z,13.90
2018-07-22T17:12:31.056Z,14.25
2018-07-22T17:14:58.843Z,15.15
2018-07-22T17:17:26.735Z,15.38
2018-07-22T17:19:54.731Z,15.95
2018-07-22T17:22:22.514Z,16.30
2018-07-22T17:24:50.314Z,16.07
2018-07-22T17:27:18.181Z,16.45
2018-07-22T17:29:46.187Z,16.90
2018-07-22T17:32:14.031Z,16.77
2018-07-22T17:34:41.756Z,18.35
2018-07-22T17:37:09.800Z,17.00
2018-07-22T17:39:37.622Z,17.00
2018-07-22T17:42:05.343Z,15.80
2018-07-22T17:44:33.264Z,16.73
2018-07-22T17:47:00.964Z,16.20
2018-07-22T17:49:28.877Z,15.63
2018-07-22T17:51:56.674Z,15.53
2018-07-22T17:54:24.437Z,15.30
2018-07-22T17:56:52.143Z,13.47
2018-07-22T17:59:20.008Z,14.47
2018-07-22T18:01:47.770Z,13.17
2018-07-22T18:04:15.635Z,14.10
2018-07-22T18:06:43.388Z,13.80
2018-07-22T18:09:11.263Z,13.37
2018-07-22T18:11:39.258Z,14.70
2018-07-22T18:14:07.238Z,14.30
2018-07-22T18:16:35.516Z,12.13
2018-07-22T18:19:03.417Z,12.63
2018-07-22T18:21:31.207Z,12.57
2018-07-22T18:23:59.087Z,12.17
2018-07-22T18:26:26.823Z,8.20
2018-07-22T18:28:54.692Z,7.47
2018-07-22T18:31:22.582Z,7.77
2018-07-22T18:33:50.377Z,7.70
2018-07-22T18:36:18.373Z,6.17
2018-07-22T18:38:46.301Z,7.47
2018-07-22T18:41:14.157Z,5.87
2018-07-22T18:43:42.289Z,5.73
2018-07-22T18:46:10.113Z,5.80
2018-07-22T18:48:38.181Z,5.63
2018-07-22T18:51:06.321Z,5.00
2018-07-22T18:53:34.178Z,5.30
2018-07-22T18:56:01.948Z,6.60
2018-07-22T18:58:29.952Z,5.17
2018-07-22T19:00:57.860Z,5.60
2018-07-22T19:03:25.714Z,5.30
2018-07-22T19:05:53.580Z,4.57
2018-07-22T19:08:21.447Z,4.53
2018-07-22T19:10:49.359Z,5.10
2018-07-22T19:13:17.393Z,5.23
2018-07-22T19:15:45.367Z,5.23
2018-07-22T19:18:13.377Z,5.10
2018-07-22T19:20:41.411Z,6.60
2018-07-22T19:23:09.184Z,4.97
2018-07-22T19:25:36.970Z,7.97
2018-07-22T19:28:04.835Z,4.77
2018-07-22T19:30:32.764Z,4.50
2018-07-22T19:33:00.642Z,5.03
2018-07-22T19:35:28.527Z,5.27
2018-07-22T19:37:56.435Z,4.40
2018-07-22T19:40:24.406Z,5.77
2018-07-22T19:42:52.339Z,4.70
2018-07-22T19:45:20.343Z,4.67
2018-07-22T19:47:48.250Z,4.33
2018-07-22T19:50:16.239Z,6.80
2018-07-22T19:52:44.280Z,4.60
2018-07-22T19:55:12.184Z,4.90
2018-07-22T19:57:40.089Z,5.20
2018-07-22T20:00:08.566Z,4.93
2018-07-22T20:02:36.768Z,4.57
2018-07-22T20:05:04.808Z,4.40
2018-07-22T20:07:32.717Z,3.97
2018-07-22T20:10:00.460Z,6.20
2018-07-22T20:12:28.378Z,4.40
2018-07-22T20:14:56.129Z,4.67
2018-07-22T20:17:23.957Z,4.73
2018-07-22T20:19:51.951Z,7.40
2018-07-22T20:22:19.720Z,5.13
2018-07-22T20:24:47.484Z,5.50
2018-07-22T20:27:15.266Z,5.90
2018-07-22T20:29:43.328Z,4.40
2018-07-22T20:32:11.486Z,4.47
2018-07-22T20:34:39.389Z,4.60
2018-07-22T20:37:07.313Z,4.72
2018-07-22T20:39:35.315Z,5.23
2018-07-22T20:42:03.129Z,4.47
2018-07-22T20:44:30.993Z,6.00
2018-07-22T20:46:58.896Z,5.17
2018-07-22T20:49:26.847Z,4.67
2018-07-22T20:51:54.669Z,4.30
2018-07-22T20:54:22.581Z,5.33
2018-07-22T20:56:50.481Z,4.30
2018-07-22T20:59:18.408Z,4.67
2018-07-22T21:01:46.176Z,4.47
2018-07-22T21:04:14.056Z,5.87
2018-07-22T21:06:41.897Z,5.30
2018-07-22T21:09:09.982Z,4.90
2018-07-22T21:12:48.418Z,5.27
2018-07-22T21:15:16.722Z,5.43
2018-07-22T21:17:45.970Z,6.63
2018-07-22T21:20:14.529Z,5.10
2018-07-22T21:22:42.368Z,4.93
2018-07-22T21:25:10.516Z,4.40
2018-07-22T21:27:38.344Z,4.80
2018-07-22T21:30:07.003Z,5.03
2018-07-22T21:32:34.836Z,7.13
2018-07-22T21:35:02.711Z,5.17
2018-07-22T21:37:30.571Z,6.57
2018-07-22T21:39:58.521Z,5.30
2018-07-22T21:42:26.316Z,5.10
2018-07-22T21:44:54.139Z,4.63
2018-07-22T21:47:21.989Z,4.50
2018-07-22T21:49:50.003Z,4.97
2018-07-22T21:52:17.839Z,5.00
2018-07-22T21:54:45.598Z,4.70
2018-07-22T21:57:13.441Z,4.90
2018-07-22T21:59:41.345Z,4.40
2018-07-22T22:02:09.263Z,5.07
2018-07-22T22:04:37.096Z,4.63
2018-07-22T22:07:05.077Z,4.80
2018-07-22T22:09:33.037Z,4.57
2018-07-22T22:12:00.978Z,4.13
2018-07-22T22:14:29.024Z,5.10
2018-07-22T22:16:57.006Z,5.10
2018-07-22T22:19:24.722Z,4.93
2018-07-22T22:21:52.644Z,5.37
2018-07-22T22:24:20.828Z,5.67
2018-07-22T22:26:48.816Z,5.03
2018-07-22T22:29:16.733Z,5.60
2018-07-22T22:31:44.610Z,5.07
2018-07-22T22:34:12.450Z,5.90
2018-07-22T22:36:40.392Z,5.40
2018-07-22T22:39:10.725Z,5.83
2018-07-22T22:41:38.669Z,5.40
2018-07-22T22:44:06.708Z,5.47
2018-07-22T22:46:34.669Z,6.40
2018-07-22T22:49:02.436Z,6.17
2018-07-22T22:51:30.307Z,5.60
2018-07-22T22:53:58.099Z,5.57
2018-07-22T22:56:25.995Z,5.97
2018-07-22T22:59:05.493Z,5.93
2018-07-22T23:01:33.523Z,6.10
2018-07-22T23:04:01.356Z,5.50
2018-07-22T23:06:29.210Z,6.30
2018-07-22T23:08:57.168Z,6.40
2018-07-22T23:11:25.052Z,6.67
2018-07-22T23:13:52.863Z,6.60
2018-07-22T23:16:20.731Z,6.77
2018-07-22T23:18:48.733Z,6.90
2018-07-22T23:21:16.604Z,7.03
2018-07-22T23:23:44.542Z,6.63
2018-07-22T23:26:12.380Z,7.00
2018-07-22T23:28:40.303Z,7.20
2018-07-22T23:31:08.092Z,7.10
2018-07-22T23:33:35.901Z,7.17
2018-07-22T23:36:03.654Z,5.90
2018-07-22T23:38:31.457Z,6.47
2018-07-22T23:40:59.304Z,6.73
2018-07-22T23:43:27.118Z,7.10
2018-07-22T23:45:55.052Z,7.27
2018-07-22T23:48:22.863Z,6.73
2018-07-22T23:50:50.748Z,6.80
2018-07-22T23:53:18.511Z,7.20
2018-07-22T23:55:46.355Z,7.53
2018-07-22T23:58:14.333Z,7.53
